Hyundai Dominion — A8IK7 — position and weather

sailwx.info

Track history (hours):
 
Tides and Currents Weather Stations Pressure Air Temp Water Temp Dewpoint Dewpoint Depression Visibility Wind Speed Wind Dir Waves Ship Positions

Hyundai Dominion

Last reported at 2014-Oct-21 02:33 UTC. Time now 2014-Oct-21 21:43 UTC.
Position N 30°35' E 122°07'.

Length 304 m; draft 11.9 m.

Type: Ship (hazmat cat A). MMSI: 636090990.

Date/timePositionNaut miles runAvg speedWind from/ knotsBaromVisibWave heightAir tempDewpointWater temp
2014-Oct-21 02:33N 30°35' E 122°07'1211.9
2014-Oct-21 01:33N 30°33' E 122°20'1616.4
2014-Oct-21 00:33N 30°28' E 122°38'1 0.2
2014-Oct-20 20:06N 30°27' E 122°38'0 0.1
2014-Oct-20 19:12N 30°27' E 122°39'0 0.1
2014-Oct-20 18:18N 30°27' E 122°39'0 0.1
2014-Oct-20 17:24N 30°28' E 122°39'0 0.0
2014-Oct-20 16:12N 30°28' E 122°39'0 0.2
2014-Oct-20 15:06N 30°28' E 122°39'0 0.2
2014-Oct-20 13:12N 30°28' E 122°38'0 0.1
2014-Oct-20 09:28N 30°28' E 122°39'1213.0
2014-Oct-20 08:33N 30°19' E 122°49'1414.0
2014-Oct-20 07:33N 30°10' E 123°01'1414.3
2014-Oct-20 06:33N 29°56' E 122°60'1513.4
2014-Oct-20 05:24N 29°41' E 122°56'1113.1
2014-Oct-20 04:31N 29°30' E 122°56'1313.0
2014-Oct-20 03:33N 29°18' E 122°51'39513.0
2014-Oct-18 21:05N 23°59' E 118°30'712.7
2014-Oct-18 20:33N 23°55' E 118°24'1312.7
2014-Oct-18 19:31N 23°47' E 118°12'1612.4
2014-Oct-18 18:13N 23°37' E 117°58'2112.2
2014-Oct-18 16:30N 23°24' E 117°41'207 9.3
2014-Oct-17 18:17N 22°20' E 114°07'  
2014-Oct-13 21:29N 01°15' E 104°04'1415.0
2014-Oct-13 20:33N 01°11' E 103°50'7 7.1
2014-Oct-13 19:33N 01°16' E 103°46'0 0.0
2014-Oct-13 18:33N 01°16' E 103°46'0 0.0
2014-Oct-13 17:30N 01°16' E 103°46'0 0.0
2014-Oct-13 16:30N 01°16' E 103°46'0 0.0
2014-Oct-13 15:33N 01°16' E 103°46'0 0.0
2014-Oct-13 14:30N 01°16' E 103°46'0 0.0
2014-Oct-13 13:30N 01°16' E 103°46'0 0.0
2014-Oct-13 12:33N 01°16' E 103°46'0 0.0
2014-Oct-13 11:33N 01°16' E 103°46'0 0.0
2014-Oct-13 10:30N 01°16' E 103°46'0 0.0
2014-Oct-13 09:30N 01°16' E 103°46'0 0.0
2014-Oct-13 08:33N 01°16' E 103°46'0 0.0
2014-Oct-13 07:30N 01°16' E 103°46'0 0.0
2014-Oct-13 06:33N 01°16' E 103°46'0 0.0
2014-Oct-13 05:33N 01°16' E 103°46'0 0.0
2014-Oct-13 04:33N 01°16' E 103°46'0 0.0
2014-Oct-13 03:33N 01°16' E 103°46'0 0.0
2014-Oct-13 02:33N 01°16' E 103°46'0 0.0
2014-Oct-13 01:33N 01°16' E 103°46'0 0.0
2014-Oct-13 00:33N 01°16' E 103°46'0 0.0
2014-Oct-12 23:33N 01°16' E 103°46'0 0.0
2014-Oct-12 22:33N 01°16' E 103°46'0 0.0
2014-Oct-12 21:33N 01°16' E 103°46'0 0.0
2014-Oct-12 20:33N 01°16' E 103°46'0 0.0
2014-Oct-12 19:33N 01°16' E 103°46'0 0.0
2014-Oct-12 18:33N 01°16' E 103°46'0 0.0
2014-Oct-12 17:30N 01°16' E 103°46'0 0.0
2014-Oct-12 16:33N 01°16' E 103°46'0 0.0
2014-Oct-12 15:33N 01°16' E 103°46'0 0.0
2014-Oct-12 14:30N 01°16' E 103°46'0 0.0
2014-Oct-12 13:30N 01°16' E 103°46'0 0.0
2014-Oct-12 12:33N 01°16' E 103°46'0 0.0
2014-Oct-12 11:30N 01°16' E 103°46'0 0.0
2014-Oct-12 10:33N 01°16' E 103°46'0 0.0
2014-Oct-12 09:33N 01°16' E 103°46'0 0.0
2014-Oct-12 08:30N 01°16' E 103°46'0 0.0
2014-Oct-12 07:33N 01°16' E 103°46'0 0.0
2014-Oct-12 06:33N 01°16' E 103°46'0 0.0
2014-Oct-12 05:33N 01°16' E 103°46'0 0.0
2014-Oct-12 04:33N 01°16' E 103°46'0 0.0
2014-Oct-12 03:33N 01°16' E 103°46'0 0.0
2014-Oct-12 02:33N 01°16' E 103°46'0 0.0
2014-Oct-12 01:30N 01°16' E 103°46'0 0.0
2014-Oct-12 00:33N 01°16' E 103°46'0 0.0
2014-Oct-11 23:30N 01°16' E 103°46'0 0.0
2014-Oct-11 22:30N 01°16' E 103°46'0 0.0
2014-Oct-11 21:33N 01°16' E 103°46'0 0.0
2014-Oct-11 20:33N 01°16' E 103°46'0 0.0
2014-Oct-11 19:33N 01°16' E 103°46'0 0.0
2014-Oct-11 18:33N 01°16' E 103°46'0 0.0
2014-Oct-11 17:33N 01°16' E 103°46'0 0.0
2014-Oct-11 16:33N 01°16' E 103°46'0 0.0
2014-Oct-11 15:33N 01°16' E 103°46'0 0.0
2014-Oct-11 14:33N 01°16' E 103°46'0 0.0
2014-Oct-11 13:33N 01°16' E 103°46'0 0.0
2014-Oct-11 12:33N 01°16' E 103°46'0 0.0
2014-Oct-11 11:33N 01°16' E 103°46'0 0.0
2014-Oct-11 10:27N 01°16' E 103°46'0 0.0
2014-Oct-11 09:33N 01°16' E 103°46'0 0.0
2014-Oct-11 08:33N 01°16' E 103°46'0 0.0
2014-Oct-11 07:33N 01°16' E 103°46'0 0.0
2014-Oct-11 06:33N 01°16' E 103°46'0 0.0
2014-Oct-11 05:33N 01°16' E 103°46'0 0.0
2014-Oct-11 04:33N 01°16' E 103°46'0 0.0
2014-Oct-11 03:33N 01°16' E 103°46'  
Track history (hours):
 
Tides and Currents Weather Stations Pressure Air Temp Water Temp Dewpoint Dewpoint Depression Visibility Wind Speed Wind Dir Waves Ship Positions

Hyundai Dominion

Last reported at 2014-Oct-21 02:33 UTC. Time now 2014-Oct-21 21:43 UTC.
Position N 30°35' E 122°07'.

Length 304 m; draft 11.9 m.

Type: Ship (hazmat cat A). MMSI: 636090990.

Date/timePositionNaut miles runAvg speedWind from/ knotsBaromVisibWave heightAir tempDewpointWater temp
2014-Oct-21 02:33N 30°35' E 122°07'1211.9
2014-Oct-21 01:33N 30°33' E 122°20'1616.4
2014-Oct-21 00:33N 30°28' E 122°38'1 0.2
2014-Oct-20 20:06N 30°27' E 122°38'0 0.1
2014-Oct-20 19:12N 30°27' E 122°39'0 0.1
2014-Oct-20 18:18N 30°27' E 122°39'0 0.1
2014-Oct-20 17:24N 30°28' E 122°39'0 0.0
2014-Oct-20 16:12N 30°28' E 122°39'0 0.2
2014-Oct-20 15:06N 30°28' E 122°39'0 0.2
2014-Oct-20 13:12N 30°28' E 122°38'0 0.1
2014-Oct-20 09:28N 30°28' E 122°39'1213.0
2014-Oct-20 08:33N 30°19' E 122°49'1414.0
2014-Oct-20 07:33N 30°10' E 123°01'1414.3
2014-Oct-20 06:33N 29°56' E 122°60'1513.4
2014-Oct-20 05:24N 29°41' E 122°56'1113.1
2014-Oct-20 04:31N 29°30' E 122°56'1313.0
2014-Oct-20 03:33N 29°18' E 122°51'39513.0
2014-Oct-18 21:05N 23°59' E 118°30'712.7
2014-Oct-18 20:33N 23°55' E 118°24'1312.7
2014-Oct-18 19:31N 23°47' E 118°12'1612.4
2014-Oct-18 18:13N 23°37' E 117°58'2112.2
2014-Oct-18 16:30N 23°24' E 117°41'207 9.3
2014-Oct-17 18:17N 22°20' E 114°07'  
2014-Oct-13 21:29N 01°15' E 104°04'1415.0
2014-Oct-13 20:33N 01°11' E 103°50'7 7.1
2014-Oct-13 19:33N 01°16' E 103°46'0 0.0
2014-Oct-13 18:33N 01°16' E 103°46'0 0.0
2014-Oct-13 17:30N 01°16' E 103°46'0 0.0
2014-Oct-13 16:30N 01°16' E 103°46'0 0.0
2014-Oct-13 15:33N 01°16' E 103°46'0 0.0
2014-Oct-13 14:30N 01°16' E 103°46'0 0.0
2014-Oct-13 13:30N 01°16' E 103°46'0 0.0
2014-Oct-13 12:33N 01°16' E 103°46'0 0.0
2014-Oct-13 11:33N 01°16' E 103°46'0 0.0
2014-Oct-13 10:30N 01°16' E 103°46'0 0.0
2014-Oct-13 09:30N 01°16' E 103°46'0 0.0
2014-Oct-13 08:33N 01°16' E 103°46'0 0.0
2014-Oct-13 07:30N 01°16' E 103°46'0 0.0
2014-Oct-13 06:33N 01°16' E 103°46'0 0.0
2014-Oct-13 05:33N 01°16' E 103°46'0 0.0
2014-Oct-13 04:33N 01°16' E 103°46'0 0.0
2014-Oct-13 03:33N 01°16' E 103°46'0 0.0
2014-Oct-13 02:33N 01°16' E 103°46'0 0.0
2014-Oct-13 01:33N 01°16' E 103°46'0 0.0
2014-Oct-13 00:33N 01°16' E 103°46'0 0.0
2014-Oct-12 23:33N 01°16' E 103°46'0 0.0
2014-Oct-12 22:33N 01°16' E 103°46'0 0.0
2014-Oct-12 21:33N 01°16' E 103°46'0 0.0
2014-Oct-12 20:33N 01°16' E 103°46'0 0.0
2014-Oct-12 19:33N 01°16' E 103°46'0 0.0
2014-Oct-12 18:33N 01°16' E 103°46'0 0.0
2014-Oct-12 17:30N 01°16' E 103°46'0 0.0
2014-Oct-12 16:33N 01°16' E 103°46'0 0.0
2014-Oct-12 15:33N 01°16' E 103°46'0 0.0
2014-Oct-12 14:30N 01°16' E 103°46'0 0.0
2014-Oct-12 13:30N 01°16' E 103°46'0 0.0
2014-Oct-12 12:33N 01°16' E 103°46'0 0.0
2014-Oct-12 11:30N 01°16' E 103°46'0 0.0
2014-Oct-12 10:33N 01°16' E 103°46'0 0.0
2014-Oct-12 09:33N 01°16' E 103°46'0 0.0
2014-Oct-12 08:30N 01°16' E 103°46'0 0.0
2014-Oct-12 07:33N 01°16' E 103°46'0 0.0
2014-Oct-12 06:33N 01°16' E 103°46'0 0.0
2014-Oct-12 05:33N 01°16' E 103°46'0 0.0
2014-Oct-12 04:33N 01°16' E 103°46'0 0.0
2014-Oct-12 03:33N 01°16' E 103°46'0 0.0
2014-Oct-12 02:33N 01°16' E 103°46'0 0.0
2014-Oct-12 01:30N 01°16' E 103°46'0 0.0
2014-Oct-12 00:33N 01°16' E 103°46'0 0.0
2014-Oct-11 23:30N 01°16' E 103°46'0 0.0
2014-Oct-11 22:30N 01°16' E 103°46'0 0.0
2014-Oct-11 21:33N 01°16' E 103°46'0 0.0
2014-Oct-11 20:33N 01°16' E 103°46'0 0.0
2014-Oct-11 19:33N 01°16' E 103°46'0 0.0
2014-Oct-11 18:33N 01°16' E 103°46'0 0.0
2014-Oct-11 17:33N 01°16' E 103°46'0 0.0
2014-Oct-11 16:33N 01°16' E 103°46'0 0.0
2014-Oct-11 15:33N 01°16' E 103°46'0 0.0
2014-Oct-11 14:33N 01°16' E 103°46'0 0.0
2014-Oct-11 13:33N 01°16' E 103°46'0 0.0
2014-Oct-11 12:33N 01°16' E 103°46'0 0.0
2014-Oct-11 11:33N 01°16' E 103°46'0 0.0
2014-Oct-11 10:27N 01°16' E 103°46'0 0.0
2014-Oct-11 09:33N 01°16' E 103°46'0 0.0
2014-Oct-11 08:33N 01°16' E 103°46'0 0.0
2014-Oct-11 07:33N 01°16' E 103°46'0 0.0
2014-Oct-11 06:33N 01°16' E 103°46'0 0.0
2014-Oct-11 05:33N 01°16' E 103°46'0 0.0
2014-Oct-11 04:33N 01°16' E 103°46'0 0.0
2014-Oct-11 03:33N 01°16' E 103°46'  

Dump ship's entire track history